createdAt,value
2018-03-07T00:00:35.239Z,59.48
2018-03-07T00:01:39.349Z,59.48
2018-03-07T00:02:42.672Z,59.49
2018-03-07T00:03:46.107Z,59.51
2018-03-07T00:04:49.656Z,59.50
2018-03-07T00:05:53.118Z,59.51
2018-03-07T00:06:56.531Z,59.52
2018-03-07T00:07:59.885Z,59.52
2018-03-07T00:09:03.317Z,59.54
2018-03-07T00:10:06.726Z,59.52
2018-03-07T00:11:10.236Z,59.52
2018-03-07T00:12:14.308Z,59.56
2018-03-07T00:13:17.713Z,59.58
2018-03-07T00:14:21.232Z,59.59
2018-03-07T00:15:25.304Z,59.64
2018-03-07T00:16:28.735Z,59.62
2018-03-07T00:17:32.114Z,59.64
2018-03-07T00:18:35.544Z,59.65
2018-03-07T00:19:38.971Z,59.65
2018-03-07T00:20:42.286Z,59.64
2018-03-07T00:21:45.673Z,59.63
2018-03-07T00:22:49.023Z,59.63
2018-03-07T00:23:52.337Z,59.63
2018-03-07T00:24:55.722Z,59.64
2018-03-07T00:25:59.159Z,59.63
2018-03-07T00:27:02.584Z,59.63
2018-03-07T00:28:06.038Z,59.63
2018-03-07T00:29:09.424Z,59.63
2018-03-07T00:30:12.908Z,59.64
2018-03-07T00:31:16.313Z,59.66
2018-03-07T00:32:19.697Z,59.68
2018-03-07T00:33:23.223Z,59.67
2018-03-07T00:34:26.561Z,59.67
2018-03-07T00:35:29.876Z,59.67
2018-03-07T00:36:33.293Z,59.67
2018-03-07T00:37:37.077Z,59.67
2018-03-07T00:38:40.488Z,59.69
2018-03-07T00:39:43.860Z,59.71
2018-03-07T00:40:47.284Z,59.71
2018-03-07T00:41:50.637Z,59.71
2018-03-07T00:42:54.582Z,59.71
2018-03-07T00:43:57.917Z,59.73
2018-03-07T00:45:01.390Z,59.74
2018-03-07T00:46:04.695Z,59.74
2018-03-07T00:47:08.154Z,59.75
2018-03-07T00:48:11.656Z,59.75
2018-03-07T00:49:15.998Z,59.75
2018-03-07T00:50:19.372Z,59.77
2018-03-07T00:51:22.842Z,59.77
2018-03-07T00:52:26.336Z,59.79
2018-03-07T00:53:29.717Z,59.81
2018-03-07T00:54:33.204Z,59.83
2018-03-07T00:55:36.617Z,59.86
2018-03-07T00:56:40.058Z,59.87
2018-03-07T00:57:43.380Z,59.89
2018-03-07T00:58:47.017Z,59.88
2018-03-07T00:59:50.563Z,59.87
2018-03-07T01:00:54.046Z,59.87
2018-03-07T01:01:57.449Z,59.86
2018-03-07T01:03:00.885Z,59.86
2018-03-07T01:04:04.267Z,59.87
2018-03-07T01:05:07.746Z,59.89
2018-03-07T01:06:12.691Z,59.89
2018-03-07T01:07:16.032Z,59.92
2018-03-07T01:08:19.438Z,59.94
2018-03-07T01:09:22.772Z,59.93
2018-03-07T01:10:26.229Z,59.94
2018-03-07T01:11:29.614Z,59.93
2018-03-07T01:12:32.988Z,59.90
2018-03-07T01:13:36.411Z,59.98
2018-03-07T01:14:39.881Z,59.99
2018-03-07T01:15:43.328Z,60.00
2018-03-07T01:16:46.649Z,60.04
2018-03-07T01:17:50.122Z,60.06
2018-03-07T01:18:53.497Z,60.07
2018-03-07T01:19:56.829Z,60.11
2018-03-07T01:21:00.194Z,60.11
2018-03-07T01:22:03.623Z,60.12
2018-03-07T01:23:07.062Z,60.16
2018-03-07T01:24:10.397Z,60.19
2018-03-07T01:25:13.721Z,60.19
2018-03-07T01:26:17.104Z,60.21
2018-03-07T01:27:20.517Z,60.23
2018-03-07T01:28:23.876Z,60.25
2018-03-07T01:29:27.259Z,60.28
2018-03-07T01:30:30.584Z,60.29
2018-03-07T01:31:34.135Z,60.31
2018-03-07T01:32:37.467Z,60.33
2018-03-07T01:33:40.805Z,60.35
2018-03-07T01:34:44.128Z,60.37
2018-03-07T01:35:47.449Z,60.39
2018-03-07T01:36:50.997Z,60.42
2018-03-07T01:37:54.490Z,60.44
2018-03-07T01:38:57.864Z,60.46
2018-03-07T01:40:01.197Z,60.48
2018-03-07T01:41:04.628Z,60.50
2018-03-07T01:42:08.042Z,60.52
2018-03-07T01:43:11.479Z,60.58
2018-03-07T01:44:14.854Z,60.63
2018-03-07T01:45:18.262Z,60.70
2018-03-07T01:46:21.572Z,60.76
2018-03-07T01:47:25.003Z,60.80
2018-03-07T01:48:28.315Z,60.85
2018-03-07T01:49:33.251Z,60.90
2018-03-07T01:50:37.435Z,61.00
2018-03-07T01:51:52.430Z,61.09
2018-03-07T01:52:56.864Z,61.25
2018-03-07T01:54:01.049Z,61.32
2018-03-07T01:55:04.494Z,61.36
2018-03-07T01:56:07.851Z,61.42
2018-03-07T01:57:11.271Z,61.46
2018-03-07T01:58:14.645Z,61.50
2018-03-07T01:59:18.038Z,61.55
2018-03-07T02:00:21.497Z,61.58
2018-03-07T02:01:24.901Z,61.64
2018-03-07T02:02:28.369Z,61.67
2018-03-07T02:03:31.869Z,61.70
2018-03-07T02:04:35.301Z,61.74
2018-03-07T02:05:38.667Z,61.77
2018-03-07T02:06:41.996Z,61.78
2018-03-07T02:07:45.347Z,61.81
2018-03-07T02:08:48.792Z,61.84
2018-03-07T02:09:52.213Z,61.86
2018-03-07T02:10:55.596Z,61.88
2018-03-07T02:11:59.066Z,61.91
2018-03-07T02:13:02.446Z,61.94
2018-03-07T02:14:05.954Z,61.93
2018-03-07T02:15:09.282Z,61.94
2018-03-07T02:16:12.668Z,61.93
2018-03-07T02:17:16.019Z,61.96
2018-03-07T02:18:19.340Z,62.00
2018-03-07T02:19:22.867Z,62.02
2018-03-07T02:20:26.234Z,62.04
2018-03-07T02:21:29.624Z,62.05
2018-03-07T02:22:33.011Z,62.07
2018-03-07T02:23:36.388Z,62.09
2018-03-07T02:24:39.969Z,62.09
2018-03-07T02:25:43.305Z,62.10
2018-03-07T02:26:46.630Z,62.13
2018-03-07T02:27:50.008Z,62.13
2018-03-07T02:28:53.321Z,62.14
2018-03-07T02:29:56.713Z,62.18
2018-03-07T02:31:00.023Z,62.21
2018-03-07T02:32:03.388Z,62.24
2018-03-07T02:33:06.692Z,62.26
2018-03-07T02:34:10.004Z,62.29
2018-03-07T02:35:13.485Z,62.34
2018-03-07T02:36:28.634Z,62.38
2018-03-07T02:37:31.964Z,62.50
2018-03-07T02:38:35.377Z,62.48
2018-03-07T02:39:38.760Z,62.48
2018-03-07T02:40:42.173Z,62.51
2018-03-07T02:41:45.502Z,62.55
2018-03-07T02:42:48.841Z,62.57
2018-03-07T02:43:52.239Z,62.58
2018-03-07T02:44:55.753Z,62.60
2018-03-07T02:45:59.105Z,62.63
2018-03-07T02:47:02.429Z,62.62
2018-03-07T02:48:05.788Z,62.64
2018-03-07T02:49:09.215Z,62.63
2018-03-07T02:50:14.568Z,62.60
2018-03-07T02:51:17.944Z,62.58
2018-03-07T02:52:21.262Z,62.56
2018-03-07T02:53:25.047Z,62.55
2018-03-07T02:54:28.378Z,62.53
2018-03-07T02:55:31.719Z,62.50
2018-03-07T02:56:35.115Z,62.48
2018-03-07T02:57:38.468Z,62.49
2018-03-07T02:58:41.810Z,62.50
2018-03-07T02:59:45.149Z,62.50
2018-03-07T03:00:48.489Z,62.51
2018-03-07T03:01:51.886Z,62.54
2018-03-07T03:02:55.221Z,62.62
2018-03-07T03:03:58.608Z,62.63
2018-03-07T03:05:01.946Z,62.65
2018-03-07T03:06:05.267Z,62.69
2018-03-07T03:07:09.437Z,62.72
2018-03-07T03:08:12.749Z,62.74
2018-03-07T03:09:16.140Z,62.73
2018-03-07T03:10:19.435Z,62.73
2018-03-07T03:11:22.769Z,62.75
2018-03-07T03:12:26.232Z,62.78
2018-03-07T03:13:29.625Z,62.79
2018-03-07T03:14:33.050Z,62.82
2018-03-07T03:15:36.461Z,62.86
2018-03-07T03:16:39.829Z,62.87
2018-03-07T03:17:43.187Z,62.89
2018-03-07T03:18:46.582Z,62.91
2018-03-07T03:19:49.912Z,62.89
2018-03-07T03:20:54.263Z,62.90
2018-03-07T03:22:00.155Z,62.89
2018-03-07T03:23:03.498Z,62.88
2018-03-07T03:24:06.887Z,62.86
2018-03-07T03:25:11.502Z,62.83
2018-03-07T03:26:14.970Z,62.79
2018-03-07T03:27:18.313Z,62.78
2018-03-07T03:28:21.691Z,62.71
2018-03-07T03:29:25.016Z,62.70
2018-03-07T03:30:28.769Z,62.72
2018-03-07T03:31:32.092Z,62.73
2018-03-07T03:32:35.414Z,62.75
2018-03-07T03:33:38.781Z,62.78
2018-03-07T03:34:42.111Z,62.81
2018-03-07T03:35:45.503Z,62.85
2018-03-07T03:36:48.945Z,62.85
2018-03-07T03:37:52.273Z,62.87
2018-03-07T03:38:55.629Z,62.84
2018-03-07T03:39:58.997Z,62.83
2018-03-07T03:41:02.292Z,62.86
2018-03-07T03:42:05.779Z,62.88
2018-03-07T03:43:09.156Z,62.92
2018-03-07T03:44:12.538Z,62.94
2018-03-07T03:45:15.965Z,62.97
2018-03-07T03:46:19.422Z,62.99
2018-03-07T03:47:23.577Z,63.00
2018-03-07T03:48:26.989Z,63.00
2018-03-07T03:49:30.412Z,62.98
2018-03-07T03:50:34.596Z,62.95
2018-03-07T03:51:38.025Z,62.90
2018-03-07T03:52:41.347Z,62.85
2018-03-07T03:53:44.753Z,62.82
2018-03-07T03:54:48.182Z,62.80
2018-03-07T03:55:51.502Z,62.80
2018-03-07T03:56:54.910Z,62.81
2018-03-07T03:57:58.287Z,62.83
2018-03-07T03:59:01.680Z,62.85
2018-03-07T04:00:05.021Z,62.87
2018-03-07T04:01:08.424Z,62.88
2018-03-07T04:02:11.836Z,62.87
2018-03-07T04:03:15.228Z,62.86
2018-03-07T04:04:18.572Z,62.88
2018-03-07T04:05:21.960Z,62.90
2018-03-07T04:06:25.315Z,62.94
2018-03-07T04:07:28.682Z,62.98
2018-03-07T04:08:32.080Z,63.02
2018-03-07T04:09:35.402Z,63.05
2018-03-07T04:10:38.835Z,63.08
2018-03-07T04:11:42.169Z,63.10
2018-03-07T04:12:45.493Z,63.08
2018-03-07T04:13:48.876Z,63.06
2018-03-07T04:14:52.225Z,63.06
2018-03-07T04:15:55.626Z,63.10
2018-03-07T04:16:58.984Z,63.10
2018-03-07T04:18:02.368Z,63.12
2018-03-07T04:19:05.771Z,63.12
2018-03-07T04:20:09.219Z,63.08
2018-03-07T04:21:12.579Z,63.09
2018-03-07T04:22:15.936Z,63.10
2018-03-07T04:23:19.322Z,63.10
2018-03-07T04:24:22.679Z,63.12
2018-03-07T04:25:26.157Z,63.17
2018-03-07T04:26:29.578Z,63.21
2018-03-07T04:27:32.988Z,63.20
2018-03-07T04:28:36.296Z,63.21
2018-03-07T04:29:39.759Z,63.23
2018-03-07T04:30:43.069Z,63.31
2018-03-07T04:31:46.501Z,63.36
2018-03-07T04:32:49.887Z,63.35
2018-03-07T04:33:53.317Z,63.37
2018-03-07T04:34:56.664Z,63.38
2018-03-07T04:36:00.094Z,63.39
2018-03-07T04:37:03.502Z,63.42
2018-03-07T04:38:06.868Z,63.48
2018-03-07T04:39:10.250Z,63.50
2018-03-07T04:40:13.621Z,63.49
2018-03-07T04:41:16.961Z,63.52
2018-03-07T04:42:20.397Z,63.52
2018-03-07T04:43:23.731Z,63.53
2018-03-07T04:44:27.173Z,63.51
2018-03-07T04:45:30.492Z,63.49
2018-03-07T04:46:33.911Z,63.48
2018-03-07T04:47:38.124Z,63.48
2018-03-07T04:48:41.677Z,63.50
2018-03-07T04:49:45.018Z,63.50
2018-03-07T04:50:49.324Z,63.52
2018-03-07T04:51:52.697Z,63.54
2018-03-07T04:52:56.103Z,63.54
2018-03-07T04:53:59.483Z,63.55
2018-03-07T04:55:02.933Z,63.59
2018-03-07T04:56:06.813Z,63.60
2018-03-07T04:57:10.194Z,63.64
2018-03-07T04:58:13.668Z,63.68
2018-03-07T04:59:17.135Z,63.70
2018-03-07T05:00:20.666Z,63.73
2018-03-07T05:01:23.987Z,63.77
2018-03-07T05:02:27.357Z,63.79
2018-03-07T05:03:30.847Z,63.77
2018-03-07T05:04:34.243Z,63.73
2018-03-07T05:05:37.590Z,63.71
2018-03-07T05:06:40.939Z,63.75
2018-03-07T05:07:44.393Z,63.76
2018-03-07T05:08:47.782Z,63.77
2018-03-07T05:09:51.473Z,63.81
2018-03-07T05:10:54.813Z,63.85
2018-03-07T05:11:58.248Z,63.87
2018-03-07T05:13:01.604Z,63.89
2018-03-07T05:14:05.424Z,63.92
2018-03-07T05:15:08.795Z,63.94
2018-03-07T05:16:12.137Z,63.97
2018-03-07T05:17:15.461Z,64.00
2018-03-07T05:18:18.799Z,64.06
2018-03-07T05:19:22.314Z,64.14
2018-03-07T05:20:25.653Z,64.17
2018-03-07T05:21:29.024Z,64.20
2018-03-07T05:22:32.382Z,64.22
2018-03-07T05:23:35.978Z,64.23
2018-03-07T05:24:39.356Z,64.25
2018-03-07T05:25:42.772Z,64.25
2018-03-07T05:26:46.142Z,64.27
2018-03-07T05:27:50.296Z,64.31
2018-03-07T05:28:53.721Z,64.38
2018-03-07T05:29:57.140Z,64.39
2018-03-07T05:31:00.448Z,64.37
2018-03-07T05:32:03.782Z,64.39
2018-03-07T05:33:07.109Z,64.38
2018-03-07T05:34:10.488Z,64.38
2018-03-07T05:35:13.876Z,64.36
2018-03-07T05:36:17.314Z,64.34
2018-03-07T05:37:20.667Z,64.35
2018-03-07T05:38:24.008Z,64.36
2018-03-07T05:39:27.345Z,64.33
2018-03-07T05:40:30.720Z,64.33
2018-03-07T05:41:34.027Z,64.30
2018-03-07T05:42:37.364Z,64.27
2018-03-07T05:43:40.693Z,64.24
2018-03-07T05:44:44.042Z,64.22
2018-03-07T05:45:47.505Z,64.18
2018-03-07T05:46:50.839Z,64.16
2018-03-07T05:47:54.145Z,64.17
2018-03-07T05:48:57.598Z,64.17
2018-03-07T05:50:00.902Z,64.16
2018-03-07T05:51:05.192Z,64.13
2018-03-07T05:52:08.535Z,64.12
2018-03-07T05:53:11.904Z,64.09
2018-03-07T05:54:15.303Z,64.06
2018-03-07T05:55:18.686Z,64.04
2018-03-07T05:56:22.040Z,64.02
2018-03-07T05:57:25.430Z,64.01
2018-03-07T05:58:28.847Z,63.98
2018-03-07T05:59:32.202Z,63.96
2018-03-07T06:00:35.592Z,63.96
2018-03-07T06:01:38.959Z,63.95
2018-03-07T06:02:42.378Z,63.94
2018-03-07T06:03:45.738Z,63.94
2018-03-07T06:04:49.110Z,63.92
2018-03-07T06:05:52.446Z,63.92
2018-03-07T06:06:56.081Z,63.94
2018-03-07T06:07:59.409Z,63.96
2018-03-07T06:09:02.753Z,63.97
2018-03-07T06:10:06.164Z,63.98
2018-03-07T06:11:09.484Z,64.01
2018-03-07T06:12:12.887Z,64.06
2018-03-07T06:13:16.246Z,64.14
2018-03-07T06:14:20.585Z,64.21
2018-03-07T06:15:24.036Z,64.27
2018-03-07T06:16:27.358Z,64.43
2018-03-07T06:17:30.712Z,64.57
2018-03-07T06:18:34.068Z,64.64
2018-03-07T06:19:37.402Z,64.73
2018-03-07T06:20:40.716Z,64.79
2018-03-07T06:21:44.028Z,64.84
2018-03-07T06:22:47.434Z,64.88
2018-03-07T06:23:50.785Z,64.91
2018-03-07T06:24:54.200Z,65.02
2018-03-07T06:25:57.588Z,65.11
2018-03-07T06:27:00.975Z,65.19
2018-03-07T06:28:04.319Z,65.24
2018-03-07T06:29:07.747Z,65.26
2018-03-07T06:30:11.066Z,65.33
2018-03-07T06:31:14.377Z,65.42
2018-03-07T06:32:17.830Z,65.55
2018-03-07T06:33:21.206Z,65.69
2018-03-07T06:34:24.613Z,65.81
2018-03-07T06:35:27.971Z,65.92
2018-03-07T06:36:31.301Z,65.97
2018-03-07T06:37:34.646Z,66.00
2018-03-07T06:38:38.019Z,66.00
2018-03-07T06:39:41.325Z,66.00
2018-03-07T06:40:44.688Z,65.99
2018-03-07T06:41:48.147Z,65.96
2018-03-07T06:42:51.552Z,65.96
2018-03-07T06:43:55.062Z,65.93
2018-03-07T06:44:58.373Z,65.88
2018-03-07T06:46:01.930Z,65.86
2018-03-07T06:47:05.257Z,65.80
2018-03-07T06:48:08.725Z,65.76
2018-03-07T06:49:12.109Z,65.76
2018-03-07T06:50:15.563Z,65.73
2018-03-07T06:51:19.147Z,65.76
2018-03-07T06:52:22.716Z,65.79
2018-03-07T06:53:33.127Z,65.82
2018-03-07T06:54:37.155Z,65.94
2018-03-07T06:55:40.664Z,65.99
2018-03-07T06:56:44.111Z,65.96
2018-03-07T06:57:47.513Z,65.96
2018-03-07T06:58:50.955Z,65.92
2018-03-07T06:59:54.366Z,65.92
2018-03-07T07:00:57.743Z,65.87
2018-03-07T07:02:01.191Z,65.83
2018-03-07T07:03:04.512Z,65.84
2018-03-07T07:04:07.819Z,65.74
2018-03-07T07:05:11.228Z,65.66
2018-03-07T07:06:14.562Z,65.50
2018-03-07T07:07:17.882Z,65.33
2018-03-07T07:08:21.192Z,65.22
2018-03-07T07:09:24.521Z,65.17
2018-03-07T07:10:27.964Z,65.04
2018-03-07T07:11:31.333Z,64.92
2018-03-07T07:12:34.688Z,64.79
2018-03-07T07:13:38.089Z,64.67
2018-03-07T07:14:41.475Z,64.52
2018-03-07T07:15:44.918Z,64.38
2018-03-07T07:16:48.653Z,64.24
2018-03-07T07:17:52.314Z,64.11
2018-03-07T07:18:55.758Z,64.02
2018-03-07T07:19:59.101Z,63.94
2018-03-07T07:21:02.597Z,63.89
2018-03-07T07:22:05.989Z,63.85
2018-03-07T07:23:09.386Z,63.73
2018-03-07T07:24:12.789Z,63.70
2018-03-07T07:25:16.232Z,63.73
2018-03-07T07:26:19.636Z,63.78
2018-03-07T07:27:23.059Z,63.86
2018-03-07T07:28:26.608Z,63.92
2018-03-07T07:29:29.943Z,63.82
2018-03-07T07:30:33.306Z,63.79
2018-03-07T07:31:36.695Z,63.77
2018-03-07T07:32:40.073Z,63.68
2018-03-07T07:33:43.574Z,63.59
2018-03-07T07:34:46.947Z,63.60
2018-03-07T07:35:50.381Z,63.53
2018-03-07T07:36:54.000Z,63.56
2018-03-07T07:37:57.328Z,63.54
2018-03-07T07:39:01.405Z,63.51
2018-03-07T07:40:05.058Z,63.58
2018-03-07T07:41:08.436Z,63.60
2018-03-07T07:42:12.243Z,63.63
2018-03-07T07:43:15.550Z,63.65
2018-03-07T07:44:18.939Z,63.66
2018-03-07T07:45:22.251Z,63.67
2018-03-07T07:46:25.595Z,63.69
2018-03-07T07:47:29.022Z,63.71
2018-03-07T07:48:32.509Z,63.74
2018-03-07T07:49:35.872Z,63.76
2018-03-07T07:50:39.184Z,63.73
2018-03-07T07:51:43.485Z,63.72
2018-03-07T07:52:46.897Z,63.70
2018-03-07T07:53:50.324Z,63.71
2018-03-07T07:54:53.744Z,63.67
2018-03-07T07:55:57.074Z,63.58
2018-03-07T07:57:00.464Z,63.55
2018-03-07T07:58:04.692Z,63.52
2018-03-07T07:59:09.603Z,63.50
2018-03-07T08:00:15.381Z,63.50
2018-03-07T08:01:18.733Z,63.43
2018-03-07T08:02:22.093Z,63.30
2018-03-07T08:03:25.483Z,63.11
2018-03-07T08:04:28.943Z,63.00
2018-03-07T08:05:32.419Z,63.00
2018-03-07T08:06:35.957Z,62.94
2018-03-07T08:07:39.332Z,62.91
2018-03-07T08:08:42.677Z,62.79
2018-03-07T08:09:46.067Z,62.67
2018-03-07T08:10:49.402Z,62.58
2018-03-07T08:11:52.746Z,62.48
2018-03-07T08:12:56.122Z,62.37
2018-03-07T08:13:59.704Z,62.23
2018-03-07T08:15:03.103Z,62.04
2018-03-07T08:16:06.660Z,62.01
2018-03-07T08:17:10.034Z,61.97
2018-03-07T08:18:13.427Z,61.94
2018-03-07T08:19:16.745Z,61.90
2018-03-07T08:20:20.119Z,61.90
2018-03-07T08:21:23.607Z,61.92
2018-03-07T08:22:27.096Z,61.94
2018-03-07T08:23:30.525Z,61.96
2018-03-07T08:24:35.475Z,61.99
2018-03-07T08:25:38.865Z,62.06
2018-03-07T08:26:42.173Z,61.98
2018-03-07T08:27:45.514Z,62.01
2018-03-07T08:28:48.919Z,61.97
2018-03-07T08:29:53.199Z,61.93
2018-03-07T08:30:56.512Z,61.91
2018-03-07T08:31:59.868Z,61.80
2018-03-07T08:33:03.233Z,61.71
2018-03-07T08:34:06.580Z,61.71
2018-03-07T08:35:10.074Z,61.71
2018-03-07T08:36:13.440Z,61.67
2018-03-07T08:37:16.843Z,61.55
2018-03-07T08:38:20.260Z,61.45
2018-03-07T08:39:23.857Z,61.40
2018-03-07T08:40:27.338Z,61.33
2018-03-07T08:41:30.646Z,61.24
2018-03-07T08:42:34.024Z,61.17
2018-03-07T08:43:37.443Z,61.20
2018-03-07T08:44:40.850Z,61.15
2018-03-07T08:45:44.203Z,61.12
2018-03-07T08:46:47.522Z,61.13
2018-03-07T08:47:51.038Z,61.05
2018-03-07T08:48:54.425Z,61.00
2018-03-07T08:49:57.797Z,60.90
2018-03-07T08:51:01.137Z,60.80
2018-03-07T08:52:05.363Z,60.72
2018-03-07T08:53:08.728Z,60.66
2018-03-07T08:54:12.148Z,60.57
2018-03-07T08:55:15.488Z,60.49
2018-03-07T08:56:18.839Z,60.39
2018-03-07T08:57:22.243Z,60.33
2018-03-07T08:58:26.197Z,60.20
2018-03-07T08:59:29.563Z,60.10
2018-03-07T09:00:32.937Z,60.03
2018-03-07T09:01:36.399Z,59.97
2018-03-07T09:02:39.701Z,59.81
2018-03-07T09:03:43.017Z,59.61
2018-03-07T09:04:46.375Z,59.46
2018-03-07T09:05:49.719Z,59.33
2018-03-07T09:06:53.219Z,59.31
2018-03-07T09:07:56.532Z,59.25
2018-03-07T09:08:59.916Z,59.18
2018-03-07T09:10:03.275Z,59.10
2018-03-07T09:11:06.714Z,59.07
2018-03-07T09:12:10.042Z,59.09
2018-03-07T09:13:13.358Z,59.01
2018-03-07T09:14:16.684Z,58.95
2018-03-07T09:15:20.057Z,58.89
2018-03-07T09:16:24.360Z,58.87
2018-03-07T09:17:27.687Z,58.84
2018-03-07T09:18:31.056Z,58.67
2018-03-07T09:19:34.423Z,58.59
2018-03-07T09:20:38.228Z,58.57
2018-03-07T09:21:41.509Z,58.53
2018-03-07T09:22:45.609Z,58.55
2018-03-07T09:23:48.924Z,58.45
2018-03-07T09:24:52.240Z,58.41
2018-03-07T09:25:55.563Z,58.33
2018-03-07T09:26:58.912Z,58.27
2018-03-07T09:28:02.281Z,58.25
2018-03-07T09:29:05.788Z,58.30
2018-03-07T09:30:09.148Z,58.36
2018-03-07T09:31:12.556Z,58.40
2018-03-07T09:32:15.939Z,58.40
2018-03-07T09:33:19.345Z,58.33
2018-03-07T09:34:22.792Z,58.31
2018-03-07T09:35:26.137Z,58.33
2018-03-07T09:36:29.501Z,58.30
2018-03-07T09:37:32.817Z,58.30
2018-03-07T09:38:36.185Z,58.34
2018-03-07T09:39:39.661Z,58.24
2018-03-07T09:40:43.052Z,58.28
2018-03-07T09:41:46.517Z,58.26
2018-03-07T09:42:49.880Z,58.19
2018-03-07T09:43:53.310Z,58.03
2018-03-07T09:44:56.690Z,57.90
2018-03-07T09:46:00.005Z,57.78
2018-03-07T09:47:03.328Z,57.66
2018-03-07T09:48:06.708Z,57.59
2018-03-07T09:49:10.147Z,57.44
2018-03-07T09:50:13.488Z,57.33
2018-03-07T09:51:16.899Z,57.31
2018-03-07T09:52:20.426Z,57.20
2018-03-07T09:53:23.769Z,57.20
2018-03-07T09:54:27.126Z,57.19
2018-03-07T09:55:30.467Z,57.03
2018-03-07T09:56:33.907Z,56.99
2018-03-07T09:57:37.315Z,57.02
2018-03-07T09:58:40.645Z,57.00
2018-03-07T09:59:44.084Z,56.90
2018-03-07T10:00:48.263Z,56.88
2018-03-07T10:01:51.663Z,56.93
2018-03-07T10:02:55.000Z,56.89
2018-03-07T10:03:58.390Z,56.96
2018-03-07T10:05:03.585Z,57.04
2018-03-07T10:06:06.914Z,57.01
2018-03-07T10:07:10.319Z,56.98
2018-03-07T10:08:13.730Z,56.96
2018-03-07T10:09:17.108Z,57.05
2018-03-07T10:10:20.458Z,57.03
2018-03-07T10:11:23.786Z,56.99
2018-03-07T10:12:27.123Z,56.94
2018-03-07T10:13:30.428Z,56.90
2018-03-07T10:14:33.796Z,56.96
2018-03-07T10:15:37.175Z,57.01
2018-03-07T10:16:40.585Z,56.95
2018-03-07T10:17:43.898Z,56.93
2018-03-07T10:18:47.253Z,56.93
2018-03-07T10:19:50.765Z,56.95
2018-03-07T10:20:54.158Z,56.96
2018-03-07T10:21:57.549Z,56.99
2018-03-07T10:23:00.857Z,57.04
2018-03-07T10:24:04.310Z,57.08
2018-03-07T10:25:07.631Z,57.02
2018-03-07T10:26:11.052Z,57.00
2018-03-07T10:27:14.391Z,56.99
2018-03-07T10:28:17.716Z,56.90
2018-03-07T10:29:21.071Z,56.85
2018-03-07T10:30:24.533Z,56.81
2018-03-07T10:31:27.904Z,56.72
2018-03-07T10:32:31.291Z,56.64
2018-03-07T10:33:34.628Z,56.53
2018-03-07T10:34:37.957Z,56.49
2018-03-07T10:35:41.671Z,56.47
2018-03-07T10:36:45.081Z,56.39
2018-03-07T10:37:48.421Z,56.28
2018-03-07T10:38:51.773Z,56.20
2018-03-07T10:39:55.221Z,56.12
2018-03-07T10:40:58.672Z,55.98
2018-03-07T10:42:02.169Z,55.78
2018-03-07T10:43:05.528Z,55.81
2018-03-07T10:44:08.890Z,55.77
2018-03-07T10:45:12.598Z,55.76
2018-03-07T10:46:15.977Z,55.72
2018-03-07T10:47:19.396Z,55.65
2018-03-07T10:48:22.713Z,55.68
2018-03-07T10:49:26.067Z,55.73
2018-03-07T10:50:29.422Z,55.75
2018-03-07T10:51:32.780Z,55.75
2018-03-07T10:52:36.965Z,55.71
2018-03-07T10:53:40.386Z,55.74
2018-03-07T10:54:43.790Z,55.79
2018-03-07T10:55:47.332Z,55.83
2018-03-07T10:56:50.929Z,55.79
2018-03-07T10:57:54.409Z,55.75
2018-03-07T10:58:57.889Z,55.73
2018-03-07T11:00:01.306Z,55.74
2018-03-07T11:01:04.686Z,55.79
2018-03-07T11:02:08.142Z,55.86
2018-03-07T11:03:11.555Z,55.96
2018-03-07T11:04:14.954Z,56.08
2018-03-07T11:05:18.288Z,56.23
2018-03-07T11:06:21.815Z,56.31
2018-03-07T11:07:25.159Z,56.43
2018-03-07T11:08:29.194Z,56.55
2018-03-07T11:09:32.722Z,56.65
2018-03-07T11:10:36.194Z,56.78
2018-03-07T11:11:40.290Z,56.94
2018-03-07T11:12:43.941Z,57.05
2018-03-07T11:13:47.421Z,57.34
2018-03-07T11:14:50.777Z,57.50
2018-03-07T11:15:54.266Z,57.68
2018-03-07T11:16:57.633Z,57.88
2018-03-07T11:18:01.023Z,58.10
2018-03-07T11:19:04.419Z,58.24
2018-03-07T11:20:07.784Z,58.45
2018-03-07T11:21:11.176Z,58.75
2018-03-07T11:22:14.536Z,58.93
2018-03-07T11:23:17.927Z,59.24
2018-03-07T11:24:21.394Z,59.39
2018-03-07T11:25:24.852Z,59.62
2018-03-07T11:26:28.197Z,59.92
2018-03-07T11:27:31.604Z,60.26
2018-03-07T11:28:35.229Z,60.53
2018-03-07T11:29:38.592Z,60.74
2018-03-07T11:30:42.024Z,60.73
2018-03-07T11:31:45.479Z,60.92
2018-03-07T11:32:49.532Z,61.00
2018-03-07T11:33:52.945Z,60.95
2018-03-07T11:34:56.358Z,61.00
2018-03-07T11:35:59.789Z,61.13
2018-03-07T11:37:03.133Z,61.34
2018-03-07T11:38:06.518Z,61.44
2018-03-07T11:39:09.969Z,61.50
2018-03-07T11:40:13.380Z,61.53
2018-03-07T11:41:19.682Z,61.77
2018-03-07T11:42:23.021Z,61.91
2018-03-07T11:43:26.452Z,61.96
2018-03-07T11:44:29.773Z,61.91
2018-03-07T11:45:33.183Z,61.98
2018-03-07T11:46:36.646Z,62.03
2018-03-07T11:47:40.160Z,62.08
2018-03-07T11:48:43.515Z,62.33
2018-03-07T11:49:46.950Z,62.33
2018-03-07T11:50:50.518Z,62.39
2018-03-07T11:51:53.976Z,62.43
2018-03-07T11:52:58.215Z,62.50
2018-03-07T11:54:01.572Z,62.43
2018-03-07T11:55:05.032Z,62.47
2018-03-07T11:56:08.504Z,62.58
2018-03-07T11:57:11.816Z,62.70
2018-03-07T11:58:15.170Z,62.73
2018-03-07T11:59:18.740Z,62.68
2018-03-07T12:00:22.112Z,62.54
2018-03-07T12:01:25.546Z,62.58
2018-03-07T12:02:30.585Z,62.65
2018-03-07T12:03:34.040Z,62.72
2018-03-07T12:04:37.360Z,62.82
2018-03-07T12:05:40.695Z,62.84
2018-03-07T12:06:44.084Z,62.57
2018-03-07T12:07:47.455Z,62.55
2018-03-07T12:08:50.806Z,62.64
2018-03-07T12:09:54.196Z,62.66
2018-03-07T12:10:57.812Z,62.68
2018-03-07T12:12:01.207Z,62.66
2018-03-07T12:13:04.559Z,62.47
2018-03-07T12:14:07.957Z,62.41
2018-03-07T12:15:11.644Z,62.28
2018-03-07T12:16:15.042Z,62.37
2018-03-07T12:17:18.449Z,62.39
2018-03-07T12:18:21.823Z,62.47
2018-03-07T12:19:25.205Z,62.56
2018-03-07T12:20:28.634Z,62.55
2018-03-07T12:21:31.952Z,62.68
2018-03-07T12:22:35.323Z,62.47
2018-03-07T12:23:38.724Z,62.50
2018-03-07T12:24:42.196Z,62.56
2018-03-07T12:25:45.537Z,62.69
2018-03-07T12:26:48.880Z,62.87
2018-03-07T12:29:01.823Z,63.08
2018-03-07T12:30:05.161Z,62.92
2018-03-07T12:31:08.511Z,62.89
2018-03-07T12:32:11.848Z,62.65
2018-03-07T12:33:15.264Z,62.45
2018-03-07T12:34:18.653Z,62.34
2018-03-07T12:35:22.046Z,62.25
2018-03-07T12:36:25.439Z,62.10
2018-03-07T12:37:29.075Z,62.17
2018-03-07T12:38:32.495Z,62.32
2018-03-07T12:39:35.946Z,62.26
2018-03-07T12:40:39.273Z,62.29
2018-03-07T12:41:42.794Z,62.21
2018-03-07T12:42:46.109Z,62.14
2018-03-07T12:43:49.521Z,62.04
2018-03-07T12:44:52.834Z,62.11
2018-03-07T12:45:56.167Z,61.99
2018-03-07T12:46:59.799Z,61.96
2018-03-07T12:48:03.103Z,62.00
2018-03-07T12:49:06.582Z,62.01
2018-03-07T12:50:09.886Z,61.88
2018-03-07T12:51:13.236Z,61.79
2018-03-07T12:52:16.737Z,61.67
2018-03-07T12:53:21.572Z,61.68
2018-03-07T12:54:24.943Z,61.71
2018-03-07T12:55:28.258Z,61.70
2018-03-07T12:56:31.660Z,61.45
2018-03-07T12:57:35.875Z,61.46
2018-03-07T12:58:39.243Z,61.50
2018-03-07T12:59:42.648Z,61.30
2018-03-07T13:00:46.347Z,60.98
2018-03-07T13:01:49.720Z,60.72
2018-03-07T13:02:53.075Z,60.72
2018-03-07T13:03:56.397Z,60.57
2018-03-07T13:04:59.892Z,60.35
2018-03-07T13:06:03.207Z,60.34
2018-03-07T13:07:06.685Z,60.42
2018-03-07T13:08:10.126Z,60.49
2018-03-07T13:09:13.563Z,60.36
2018-03-07T13:10:17.001Z,60.12
2018-03-07T13:11:20.327Z,59.78
2018-03-07T13:12:23.891Z,59.71
2018-03-07T13:13:27.208Z,59.84
2018-03-07T13:14:30.705Z,59.88
2018-03-07T13:15:34.082Z,59.97
2018-03-07T13:16:37.407Z,60.04
2018-03-07T13:17:40.761Z,59.87
2018-03-07T13:18:44.167Z,59.69
2018-03-07T13:19:48.153Z,59.64
2018-03-07T13:20:52.416Z,59.49
2018-03-07T13:21:56.166Z,59.46
2018-03-07T13:22:59.482Z,59.39
2018-03-07T13:24:02.877Z,59.33
2018-03-07T13:25:06.308Z,59.42
2018-03-07T13:26:09.727Z,59.58
2018-03-07T13:27:13.061Z,59.81
2018-03-07T13:28:16.491Z,59.92
2018-03-07T13:29:19.858Z,60.03
2018-03-07T13:30:23.318Z,60.06
2018-03-07T13:31:26.747Z,60.09
2018-03-07T13:32:30.173Z,60.17
2018-03-07T13:33:33.793Z,59.85
2018-03-07T13:34:37.203Z,59.78
2018-03-07T13:35:40.616Z,59.63
2018-03-07T13:36:43.950Z,59.49
2018-03-07T13:37:47.607Z,59.36
2018-03-07T13:38:51.258Z,59.32